Time;durP1;ratioP1;P1;durP2;ratioP2;P2;SDS_P1;SDS_P2;PMS_P1;PMS_P2;Temp;Humidity;BMP_temperature;BMP_pressure;BME280_temperature;BME280_humidity;BME280_pressure;Samples;Min_cycle;Max_cycle;Signal;HPM_P1;HPM_P2
2022/07/02 00:01:00;;;;;;;7.22;4.05;;;;;;;23.44;100.00;99866.34;1745462;81;21764;-75
2022/07/02 00:03:36;;;;;;;6.33;3.98;;;;;;;23.33;100.00;99860.69;1716563;82;21035;-75
2022/07/02 00:06:05;;;;;;;8.13;4.30;;;;;;;23.47;100.00;99860.53;1745092;81;20944;-76
2022/07/02 00:08:33;;;;;;;8.28;4.15;;;;;;;23.47;100.00;99860.53;1745196;81;20955;-76
2022/07/02 00:11:02;;;;;;;8.03;4.50;;;;;;;23.45;100.00;99874.17;1745699;81;20912;-75
2022/07/02 00:13:29;;;;;;;6.90;4.55;;;;;;;23.35;100.00;99884.18;1745585;81;21154;-76
2022/07/02 00:15:56;;;;;;;5.58;4.17;;;;;;;23.44;100.00;99871.95;1745264;81;20895;-76
2022/07/02 00:18:23;;;;;;;9.33;4.72;;;;;;;23.50;100.00;99872.37;1745760;81;20911;-75
2022/07/02 00:20:49;;;;;;;5.37;3.87;;;;;;;23.52;100.00;99883.22;1745086;81;21002;-76
2022/07/02 00:23:15;;;;;;;6.40;3.72;;;;;;;23.58;100.00;99883.01;1745735;81;21560;-76
2022/07/02 00:25:56;;;;;;;8.13;3.60;;;;;;;23.65;100.00;99887.83;1744835;81;21003;-75
2022/07/02 00:28:24;;;;;;;5.85;4.22;;;;;;;23.59;100.00;99886.04;1745765;81;21429;-75
2022/07/02 00:30:52;;;;;;;9.43;5.35;;;;;;;23.57;100.00;99893.47;1745274;81;20884;-75
2022/07/02 00:33:19;;;;;;;9.00;4.95;;;;;;;23.54;100.00;99890.66;1745577;81;20887;-75
2022/07/02 00:35:46;;;;;;;7.25;5.28;;;;;;;23.43;100.00;99890.63;1744792;81;20978;-75
2022/07/02 00:38:13;;;;;;;6.03;4.60;;;;;;;23.35;100.00;99885.59;1745658;81;21262;-75
2022/07/02 00:40:40;;;;;;;7.75;3.92;;;;;;;23.29;100.00;99874.52;1745559;82;20984;-75
2022/07/02 00:43:07;;;;;;;5.22;4.00;;;;;;;23.35;100.00;99873.72;1745375;81;20959;-75
2022/07/02 00:45:33;;;;;;;5.25;4.08;;;;;;;23.35;100.00;99882.78;1745468;81;20932;-75
2022/07/02 00:48:00;;;;;;;6.22;4.47;;;;;;;23.37;100.00;99880.38;1745087;81;20947;-75
2022/07/02 00:50:27;;;;;;;5.83;4.17;;;;;;;23.39;100.00;99880.76;1745885;81;21018;-75
2022/07/02 00:52:53;;;;;;;4.50;3.62;;;;;;;23.50;100.00;99892.05;1745268;81;21599;-75
2022/07/02 00:55:20;;;;;;;7.33;4.78;;;;;;;23.47;100.00;99888.64;1745536;82;20927;-75
2022/07/02 00:57:47;;;;;;;9.08;3.83;;;;;;;23.35;100.00;99891.20;1745780;81;20888;-75
2022/07/02 01:00:20;;;;;;;8.50;4.17;;;;;;;23.34;100.00;99888.17;1745557;81;21098;-75
2022/07/02 01:02:48;;;;;;;5.35;4.15;;;;;;;23.44;100.00;99888.05;1745657;81;21051;-74
2022/07/02 01:05:18;;;;;;;5.10;3.98;;;;;;;23.51;100.00;99890.84;1745244;81;21528;-75
2022/07/02 01:10:16;;;;;;;4.22;3.52;;;;;;;23.42;100.00;99895.44;1745517;81;20971;-74
2022/07/02 01:10:16;;;;;;;6.25;3.87;;;;;;;23.43;100.00;99900.47;1741856;82;21444;-75
2022/07/02 01:12:48;;;;;;;4.37;3.67;;;;;;;23.30;100.00;99906.44;1741361;81;21467;-75
2022/07/02 01:15:16;;;;;;;4.60;3.80;;;;;;;23.33;100.00;99907.66;1745728;81;21134;-75
2022/07/02 01:17:42;;;;;;;4.83;3.67;;;;;;;23.31;100.00;99909.47;1745278;82;20884;-75
2022/07/02 01:20:11;;;;;;;6.83;4.10;;;;;;;23.44;100.00;99904.91;1745282;81;20928;-75
2022/07/02 01:22:40;;;;;;;5.55;3.75;;;;;;;23.36;100.00;99908.27;1745170;81;21565;-75
2022/07/02 01:25:07;;;;;;;8.50;3.70;;;;;;;23.27;100.00;99903.64;1745442;81;20900;-75
2022/07/02 01:27:35;;;;;;;5.53;3.42;;;;;;;23.34;100.00;99902.23;1745420;81;21205;-75
2022/07/02 01:30:02;;;;;;;4.42;3.45;;;;;;;23.30;100.00;99899.41;1745791;81;21548;-75
2022/07/02 01:32:29;;;;;;;4.90;3.40;;;;;;;23.45;100.00;99909.31;1745182;81;21436;-75
2022/07/02 01:35:05;;;;;;;9.70;3.67;;;;;;;23.39;100.00;99910.89;1745584;81;20992;-75
2022/07/02 01:37:32;;;;;;;5.35;3.92;;;;;;;23.37;100.00;99914.70;1745452;81;20952;-75
2022/07/02 01:39:59;;;;;;;6.40;4.15;;;;;;;23.25;100.00;99918.09;1745531;81;21321;-75
2022/07/02 01:42:26;;;;;;;5.60;3.70;;;;;;;23.29;100.00;99918.89;1745584;81;20978;-75
2022/07/02 01:44:52;;;;;;;6.65;3.67;;;;;;;23.27;100.00;99912.86;1745234;82;20876;-75
2022/07/02 01:47:18;;;;;;;7.45;3.65;;;;;;;23.30;100.00;99912.05;1745672;81;20938;-75
2022/07/02 01:49:45;;;;;;;7.97;3.58;;;;;;;23.31;100.00;99910.88;1745612;81;20895;-75
2022/07/02 01:52:14;;;;;;;7.53;3.83;;;;;;;23.43;100.00;99917.34;1745459;82;21851;-76
2022/07/02 01:54:40;;;;;;;4.08;3.08;;;;;;;23.40;100.00;99916.14;1717328;82;21413;-75
2022/07/02 01:57:07;;;;;;;8.78;3.27;;;;;;;23.56;100.00;99914.96;1745409;81;21527;-76
2022/07/02 01:59:34;;;;;;;9.20;3.60;;;;;;;23.57;100.00;99924.40;1745678;82;21341;-76
2022/07/02 02:02:05;;;;;;;6.10;2.83;;;;;;;23.90;100.00;99920.80;1745487;81;20872;-76
2022/07/02 02:04:32;;;;;;;6.22;3.02;;;;;;;24.01;100.00;99931.42;1745728;81;21291;-76
2022/07/02 02:06:59;;;;;;;6.15;3.42;;;;;;;24.19;100.00;99930.64;1745670;81;20879;-76
2022/07/02 02:09:25;;;;;;;4.08;3.30;;;;;;;24.18;100.00;99934.65;1745966;81;20951;-76
2022/07/02 02:11:52;;;;;;;5.08;2.95;;;;;;;24.16;100.00;99928.59;1745253;81;20907;-76
2022/07/02 02:14:19;;;;;;;14.60;3.42;;;;;;;24.30;100.00;99932.83;1745628;81;20919;-76
2022/07/02 02:16:45;;;;;;;5.95;3.12;;;;;;;24.16;100.00;99933.62;1745639;81;21894;-76
2022/07/02 02:19:12;;;;;;;6.40;3.47;;;;;;;24.17;100.00;99934.45;1745493;81;21409;-75
2022/07/02 02:21:39;;;;;;;4.67;3.50;;;;;;;24.24;100.00;99934.42;1745719;81;20924;-76
2022/07/02 02:24:06;;;;;;;5.95;3.40;;;;;;;24.33;100.00;99937.45;1745945;81;21464;-76
2022/07/02 02:26:33;;;;;;;5.65;3.40;;;;;;;24.31;100.00;99940.05;1745393;82;21437;-76
2022/07/02 02:28:59;;;;;;;4.03;3.12;;;;;;;24.38;100.00;99939.23;1745648;81;21876;-76
2022/07/02 02:31:27;;;;;;;7.70;3.40;;;;;;;24.36;100.00;99933.83;1745272;81;20952;-75
2022/07/02 02:33:54;;;;;;;3.80;2.95;;;;;;;24.29;100.00;99929.80;1745732;81;21029;-75
2022/07/02 02:36:20;;;;;;;5.62;3.37;;;;;;;24.31;100.00;99931.61;1745839;81;20900;-76
2022/07/02 02:38:48;;;;;;;3.85;3.05;;;;;;;24.28;100.00;99935.83;1745617;82;20935;-76
2022/07/02 02:41:14;;;;;;;4.83;3.30;;;;;;;24.34;100.00;99937.64;1745508;81;21244;-75
2022/07/02 02:43:42;;;;;;;12.13;3.25;;;;;;;24.35;100.00;99935.83;1745551;81;20856;-76
2022/07/02 02:46:10;;;;;;;4.40;2.95;;;;;;;24.30;100.00;99937.05;1745560;82;20948;-76
2022/07/02 02:48:36;;;;;;;5.05;3.37;;;;;;;24.37;100.00;99938.23;1745760;81;21509;-76
2022/07/02 02:51:05;;;;;;;11.00;3.37;;;;;;;24.46;100.00;99937.81;1745529;81;21030;-76
2022/07/02 02:53:33;;;;;;;7.10;3.65;;;;;;;24.39;100.00;99937.23;1717186;81;20888;-75
2022/07/02 02:56:01;;;;;;;12.53;3.52;;;;;;;24.44;100.00;99943.86;1745762;81;20908;-75
2022/07/02 02:58:28;;;;;;;5.90;3.42;;;;;;;24.43;100.00;99949.27;1745720;82;20967;-75
2022/07/02 03:00:55;;;;;;;4.45;3.65;;;;;;;24.44;100.00;99945.27;1745441;81;21022;-75
2022/07/02 03:03:21;;;;;;;6.22;3.90;;;;;;;24.29;100.00;99943.87;1745860;81;20915;-75
2022/07/02 03:05:48;;;;;;;4.17;3.30;;;;;;;24.49;100.00;99955.30;1745720;81;21358;-75
2022/07/02 03:08:14;;;;;;;7.80;3.45;;;;;;;24.35;100.00;99954.72;1745659;81;20971;-76
2022/07/02 03:10:41;;;;;;;6.35;4.00;;;;;;;24.46;100.00;99956.12;1745442;81;20968;-75
2022/07/02 03:13:08;;;;;;;8.30;3.98;;;;;;;24.47;100.00;99957.12;1746143;81;20916;-75
2022/07/02 03:15:35;;;;;;;4.50;3.62;;;;;;;24.45;100.00;99955.93;1749018;82;20987;-76
2022/07/02 03:18:02;;;;;;;10.35;3.65;;;;;;;24.53;100.00;99960.33;1749104;82;21529;-75
2022/07/02 03:20:29;;;;;;;7.35;3.42;;;;;;;24.43;100.00;99966.16;1749039;82;20959;-75
2022/07/02 03:22:57;;;;;;;6.30;3.95;;;;;;;24.52;100.00;99966.56;1749040;82;20916;-75
2022/07/02 03:25:23;;;;;;;5.65;3.90;;;;;;;24.63;100.00;99969.95;1749128;82;20903;-76
2022/07/02 03:27:50;;;;;;;7.15;3.95;;;;;;;24.59;100.00;99970.56;1749112;82;20880;-75
2022/07/02 03:30:17;;;;;;;6.72;4.17;;;;;;;24.54;100.00;99969.78;1749048;82;21181;-76
2022/07/02 03:32:43;;;;;;;4.78;3.98;;;;;;;24.57;100.00;99976.59;1749517;82;20876;-75
2022/07/02 03:35:10;;;;;;;7.75;3.83;;;;;;;24.64;100.00;99974.37;1749049;82;20844;-75
2022/07/02 03:37:37;;;;;;;5.22;4.15;;;;;;;24.69;100.00;99973.95;1748986;82;21059;-75
2022/07/02 03:40:04;;;;;;;7.53;3.67;;;;;;;24.70;100.00;99976.17;1749654;82;21440;-75
2022/07/02 03:42:31;;;;;;;5.65;3.30;;;;;;;24.66;100.00;99976.18;1748975;82;21263;-75
2022/07/02 03:44:58;;;;;;;7.25;3.98;;;;;;;24.63;100.00;99967.14;1749071;82;20892;-76
2022/07/02 03:47:25;;;;;;;9.33;3.10;;;;;;;24.59;100.00;99970.56;1749186;82;20943;-76
2022/07/02 03:49:51;;;;;;;5.45;3.02;;;;;;;24.67;100.00;99968.73;1748944;82;20888;-76
2022/07/02 03:52:18;;;;;;;7.03;3.60;;;;;;;24.66;100.00;99974.17;1749085;82;21386;-76
2022/07/02 03:54:45;;;;;;;5.42;3.15;;;;;;;24.71;100.00;99970.13;1749066;82;21508;-75
2022/07/02 03:57:11;;;;;;;8.48;5.00;;;;;;;24.90;100.00;99958.19;1749243;82;21457;-76
2022/07/02 03:59:38;;;;;;;6.00;3.50;;;;;;;25.08;100.00;99953.13;1749208;82;20974;-76
2022/07/02 04:02:05;;;;;;;7.65;3.33;;;;;;;25.09;100.00;99952.72;1749048;82;21043;-75
2022/07/02 04:04:31;;;;;;;4.25;3.10;;;;;;;25.11;100.00;99959.34;1749210;82;20852;-75
2022/07/02 04:06:57;;;;;;;10.28;4.03;;;;;;;24.99;100.00;99961.39;1748879;82;22034;-76
2022/07/02 04:09:24;;;;;;;10.48;3.83;;;;;;;24.92;100.00;99960.03;1748898;82;21550;-76
2022/07/02 04:11:51;;;;;;;3.40;3.08;;;;;;;24.97;100.00;99960.20;1749130;82;20933;-75
2022/07/02 04:14:17;;;;;;;7.97;3.70;;;;;;;24.92;100.00;99967.08;1747599;81;20971;-76
2022/07/02 04:16:44;;;;;;;6.78;3.35;;;;;;;25.10;100.00;99968.39;1745578;81;21598;-75
2022/07/02 04:19:10;;;;;;;8.75;3.12;;;;;;;25.19;100.00;99977.82;1745603;82;21595;-76
2022/07/02 04:21:37;;;;;;;10.10;3.62;;;;;;;25.09;100.00;99977.27;1745454;82;20927;-75
2022/07/02 04:24:05;;;;;;;7.83;3.65;;;;;;;25.26;100.00;99981.21;1745663;82;21416;-76
2022/07/02 04:26:32;;;;;;;8.88;3.50;;;;;;;25.37;100.00;99979.13;1745806;82;20927;-75
2022/07/02 04:28:58;;;;;;;5.65;3.00;;;;;;;25.31;100.00;99978.56;1745845;81;20919;-76
2022/07/02 04:31:25;;;;;;;7.37;3.08;;;;;;;25.35;100.00;99984.37;1745470;82;21242;-75
2022/07/02 04:33:52;;;;;;;7.28;3.45;;;;;;;25.66;100.00;99984.44;1745560;82;20872;-75
2022/07/02 04:36:18;;;;;;;4.25;3.05;;;;;;;25.79;100.00;99988.38;1745527;81;21500;-75
2022/07/02 04:38:45;;;;;;;6.03;3.00;;;;;;;25.82;100.00;99993.18;1745658;82;21556;-76
2022/07/02 04:41:11;;;;;;;5.53;3.17;;;;;;;25.89;100.00;99997.37;1745881;82;21341;-75
2022/07/02 04:43:38;;;;;;;4.45;3.62;;;;;;;25.95;100.00;100005.39;1745556;82;21590;-75
2022/07/02 04:46:04;;;;;;;7.30;3.33;;;;;;;26.09;100.00;100001.62;1745668;82;21018;-76
2022/07/02 04:48:31;;;;;;;6.72;4.22;;;;;;;25.95;100.00;100006.17;1745501;81;21039;-76
2022/07/02 04:50:59;;;;;;;5.90;3.25;;;;;;;26.05;100.00;100007.30;1745472;82;20975;-76
2022/07/02 04:53:25;;;;;;;5.75;3.10;;;;;;;25.98;100.00;100008.79;1745903;82;20990;-76
2022/07/02 04:55:53;;;;;;;7.60;2.92;;;;;;;26.05;100.00;100007.93;1745431;82;21249;-76
2022/07/02 04:58:20;;;;;;;10.48;3.80;;;;;;;26.23;100.00;100014.83;1745516;81;20876;-75
2022/07/02 05:00:46;;;;;;;6.78;3.85;;;;;;;26.13;100.00;100013.70;1745481;81;20939;-75
2022/07/02 05:03:13;;;;;;;9.93;3.83;;;;;;;26.18;100.00;100018.09;1745565;82;20936;-75
2022/07/02 05:05:39;;;;;;;11.05;3.77;;;;;;;26.19;100.00;100016.86;1745790;81;20860;-75
2022/07/02 05:08:06;;;;;;;7.83;3.52;;;;;;;26.20;100.00;100020.71;1745534;82;21105;-75
2022/07/02 05:10:34;;;;;;;11.15;3.62;;;;;;;26.29;100.00;100015.97;1745557;81;20864;-76
2022/07/02 05:13:00;;;;;;;7.58;3.50;;;;;;;26.48;100.00;100010.38;1745506;82;20919;-76
2022/07/02 05:15:28;;;;;;;9.20;3.72;;;;;;;26.81;98.05;100010.66;1747904;81;20991;-76
2022/07/02 05:17:55;;;;;;;8.53;3.33;;;;;;;26.72;98.82;100014.78;1749118;82;20999;-76
2022/07/02 05:20:22;;;;;;;7.50;4.08;;;;;;;26.82;98.78;100011.64;1748990;82;21235;-76
2022/07/02 05:22:48;;;;;;;4.75;3.47;;;;;;;26.72;98.97;100019.63;1749110;82;21500;-75
2022/07/02 05:25:15;;;;;;;11.73;3.45;;;;;;;26.90;96.65;100015.20;1749169;82;21528;-76
2022/07/02 05:27:41;;;;;;;7.47;3.90;;;;;;;26.90;97.23;100016.62;1749149;82;21480;-76
2022/07/02 05:30:09;;;;;;;19.67;4.05;;;;;;;27.00;96.12;100023.96;1749077;82;21422;-76
2022/07/02 05:32:36;;;;;;;8.28;2.60;;;;;;;26.90;96.96;100019.44;1749193;82;21233;-75
2022/07/02 05:35:03;;;;;;;8.15;3.55;;;;;;;27.10;96.25;100022.46;1748985;82;20923;-75
2022/07/02 05:37:29;;;;;;;6.97;3.22;;;;;;;27.18;94.64;100020.94;1749027;82;20947;-76
2022/07/02 05:39:56;;;;;;;8.45;2.90;;;;;;;27.25;94.90;100020.05;1749168;82;20899;-75
2022/07/02 05:42:22;;;;;;;5.53;3.60;;;;;;;27.28;95.26;100020.00;1749448;82;20891;-75
2022/07/02 05:44:50;;;;;;;4.55;2.92;;;;;;;27.28;95.55;100026.29;1749101;82;21605;-77
2022/07/02 05:47:17;;;;;;;10.20;3.37;;;;;;;27.43;93.79;100026.27;1749169;82;20986;-75
2022/07/02 05:49:43;;;;;;;14.00;3.45;;;;;;;27.24;94.72;100030.57;1749028;82;20971;-76
2022/07/02 05:52:10;;;;;;;12.25;3.67;;;;;;;27.31;93.95;100030.45;1749174;82;20899;-75
2022/07/02 05:54:37;;;;;;;8.73;3.52;;;;;;;27.36;94.03;100024.16;1749238;82;20999;-75
2022/07/02 05:57:07;;;;;;;6.62;3.30;;;;;;;27.38;94.55;100030.97;1749160;82;21629;-75
2022/07/02 05:59:34;;;;;;;10.43;3.52;;;;;;;27.56;91.69;100035.59;1748958;82;20951;-76
2022/07/02 06:02:01;;;;;;;6.55;3.30;;;;;;;27.70;90.62;100033.21;1749125;82;20923;-75
2022/07/02 06:04:27;;;;;;;32.73;4.33;;;;;;;27.66;91.88;100042.33;1749029;82;20919;-75
2022/07/02 06:09:40;;;;;;;7.30;3.80;;;;;;;27.72;93.29;100049.77;1749037;82;20872;-75
2022/07/02 06:12:08;;;;;;;10.98;3.15;;;;;;;27.78;93.45;100053.70;1749438;82;20990;-75
2022/07/02 06:14:35;;;;;;;6.85;3.08;;;;;;;27.73;92.69;100054.18;1748963;81;20958;-75
2022/07/02 06:17:02;;;;;;;8.60;3.08;;;;;;;27.81;93.01;100052.23;1749019;82;20884;-75
2022/07/02 06:19:28;;;;;;;12.82;3.42;;;;;;;27.77;93.58;100052.11;1749014;82;21493;-75
2022/07/02 06:21:55;;;;;;;8.80;3.33;;;;;;;27.83;92.55;100056.05;1749172;82;21196;-75
2022/07/02 06:24:21;;;;;;;6.35;3.30;;;;;;;27.89;91.81;100057.80;1749210;82;20884;-75
2022/07/02 06:26:47;;;;;;;5.92;2.87;;;;;;;27.91;92.21;100056.12;1749101;82;20920;-76
2022/07/02 06:29:14;;;;;;;7.55;3.20;;;;;;;27.85;92.53;100061.28;1749058;82;21002;-76
2022/07/02 06:31:41;;;;;;;6.65;3.58;;;;;;;27.81;92.65;100059.92;1749077;82;20888;-76
2022/07/02 06:34:08;;;;;;;5.17;3.20;;;;;;;27.98;92.08;100058.69;1749051;82;21558;-76
2022/07/02 06:36:35;;;;;;;7.22;3.62;;;;;;;28.05;89.98;100056.53;1749131;82;21020;-76
2022/07/02 06:39:02;;;;;;;4.65;2.80;;;;;;;28.03;91.56;100062.45;1749009;82;21464;-76
2022/07/02 06:44:13;;;;;;;6.62;2.85;;;;;;;28.09;90.66;100074.06;1749145;82;20934;-76
2022/07/02 06:46:41;;;;;;;10.63;3.30;;;;;;;28.11;90.62;100074.45;1749291;82;21614;-76
2022/07/02 06:49:07;;;;;;;3.87;2.62;;;;;;;28.23;88.15;100068.19;1749029;82;21049;-76
2022/07/02 06:51:33;;;;;;;12.10;3.42;;;;;;;28.40;88.41;100069.16;1749295;82;20927;-76
2022/07/02 06:54:00;;;;;;;15.05;3.15;;;;;;;28.50;88.66;100069.38;1749040;82;21521;-76
2022/07/02 06:56:29;;;;;;;7.53;3.42;;;;;;;28.64;88.20;100069.12;1749059;82;20899;-75
2022/07/02 06:58:56;;;;;;;17.40;3.80;;;;;;;28.90;83.94;100072.29;1749336;82;21219;-76
2022/07/02 07:01:23;;;;;;;10.43;3.52;;;;;;;28.90;84.77;100075.13;1749014;82;20876;-76
2022/07/02 07:03:49;;;;;;;6.17;3.12;;;;;;;28.76;86.26;100079.02;1749153;82;20891;-76
2022/07/02 07:06:16;;;;;;;5.25;3.00;;;;;;;28.66;87.21;100085.08;1749307;82;20939;-76
2022/07/02 07:08:42;;;;;;;7.72;2.92;;;;;;;28.79;86.89;100085.27;1749061;82;21460;-76
2022/07/02 07:11:09;;;;;;;5.65;3.10;;;;;;;28.74;87.02;100077.27;1749368;82;21789;-76
2022/07/02 07:13:37;;;;;;;8.35;3.45;;;;;;;28.76;85.95;100075.41;1748994;82;20986;-76
2022/07/02 07:16:05;;;;;;;7.80;3.12;;;;;;;28.91;83.35;100081.60;1753157;80;20892;-75
2022/07/02 07:18:31;;;;;;;13.18;3.58;;;;;;;28.88;82.69;100076.17;1754595;81;21434;-76
2022/07/02 07:20:58;;;;;;;7.70;2.55;;;;;;;28.99;83.77;100077.42;1754395;81;20935;-76
2022/07/02 07:23:25;;;;;;;6.08;2.85;;;;;;;29.02;82.46;100076.55;1754344;81;21114;-76
2022/07/02 07:25:51;;;;;;;8.28;2.80;;;;;;;29.00;78.81;100072.56;1754256;81;21428;-76
2022/07/02 07:28:17;;;;;;;5.03;2.30;;;;;;;29.09;78.80;100076.23;1754365;81;20922;-76
2022/07/02 07:30:44;;;;;;;4.70;2.17;;;;;;;29.32;75.81;100078.20;1754314;81;20935;-76
2022/07/02 07:33:11;;;;;;;7.65;2.37;;;;;;;29.37;75.10;100076.27;1754456;81;20931;-76
2022/07/02 07:35:37;;;;;;;4.95;3.00;;;;;;;29.47;76.25;100082.13;1754619;81;21114;-76
2022/07/02 07:38:03;;;;;;;5.37;2.52;;;;;;;29.64;76.08;100087.27;1754263;81;20952;-76
2022/07/02 07:40:30;;;;;;;5.78;2.52;;;;;;;29.75;75.91;100080.72;1754360;81;20966;-76
2022/07/02 07:42:58;;;;;;;6.53;2.60;;;;;;;29.80;75.11;100085.10;1754353;81;20931;-76
2022/07/02 07:45:25;;;;;;;4.17;2.33;;;;;;;29.81;74.96;100081.63;1754372;81;21139;-76
2022/07/02 07:47:51;;;;;;;4.05;2.12;;;;;;;29.92;74.26;100088.48;1754655;81;21226;-76
2022/07/02 07:50:18;;;;;;;6.92;2.70;;;;;;;29.99;72.39;100098.27;1754199;81;20936;-76
2022/07/02 07:52:44;;;;;;;2.75;1.95;;;;;;;30.04;71.74;100096.93;1754343;81;21536;-77
2022/07/02 07:55:11;;;;;;;6.05;2.52;;;;;;;30.10;71.55;100088.05;1754662;81;20892;-76
2022/07/02 07:57:38;;;;;;;18.90;3.42;;;;;;;30.07;72.62;100087.52;1754451;81;21061;-76
2022/07/02 08:00:06;;;;;;;5.33;2.52;;;;;;;30.02;73.41;100088.86;1754541;81;21112;-76
2022/07/02 08:02:35;;;;;;;10.60;2.47;;;;;;;30.06;71.57;100092.39;1753719;81;21001;-76
2022/07/02 08:05:01;;;;;;;7.30;2.42;;;;;;;30.12;71.53;100093.48;1754377;81;21452;-78
2022/07/02 08:07:28;;;;;;;6.75;2.35;;;;;;;30.16;69.25;100096.84;1757004;81;20978;-75
2022/07/02 08:09:55;;;;;;;4.78;2.47;;;;;;;30.26;69.15;100101.50;1754385;81;21540;-74
2022/07/02 08:12:23;;;;;;;8.63;2.10;;;;;;;30.31;69.95;100103.00;1754464;81;21126;-75
2022/07/02 08:14:50;;;;;;;5.53;2.30;;;;;;;30.42;70.20;100091.38;1753297;80;20883;-75
2022/07/02 08:17:17;;;;;;;5.67;2.10;;;;;;;30.53;71.25;100095.35;1743178;81;20927;-76
2022/07/02 08:19:44;;;;;;;8.03;2.27;;;;;;;30.60;70.88;100103.70;1743497;81;21381;-75
2022/07/02 08:22:12;;;;;;;4.50;2.08;;;;;;;30.67;69.65;100108.40;1743524;80;20943;-76
2022/07/02 08:24:39;;;;;;;3.70;2.12;;;;;;;30.69;65.59;100104.49;1743173;81;21773;-75
2022/07/02 08:27:05;;;;;;;4.53;2.00;;;;;;;30.73;65.83;100104.57;1743027;81;20955;-75
2022/07/02 08:29:32;;;;;;;7.67;2.30;;;;;;;30.81;67.51;100103.77;1743151;81;20888;-75
2022/07/02 08:31:58;;;;;;;4.75;1.87;;;;;;;30.92;66.36;100106.34;1742956;81;21529;-76
2022/07/02 08:34:25;;;;;;;5.80;2.02;;;;;;;31.00;67.01;100111.84;1743343;81;21090;-76
2022/07/02 08:36:51;;;;;;;5.20;1.92;;;;;;;31.06;64.58;100115.72;1743210;81;21039;-75
2022/07/02 08:39:18;;;;;;;6.45;2.20;;;;;;;31.09;62.81;100107.09;1743030;81;21587;-76
2022/07/02 08:41:44;;;;;;;3.35;2.02;;;;;;;30.90;61.77;100111.66;1743042;81;21583;-76
2022/07/02 08:44:11;;;;;;;6.22;2.10;;;;;;;30.99;62.58;100102.50;1698611;82;21413;-75
2022/07/02 08:46:41;;;;;;;6.87;2.70;;;;;;;30.96;62.93;100109.86;1743234;81;21011;-74
2022/07/02 08:49:08;;;;;;;5.47;2.17;;;;;;;31.07;63.07;100105.92;1743611;81;21801;-76
2022/07/02 08:51:35;;;;;;;4.78;2.37;;;;;;;31.06;62.23;100100.88;1743161;81;21000;-76
2022/07/02 08:54:03;;;;;;;6.83;2.47;;;;;;;31.05;62.12;100109.87;1742944;81;21441;-76
2022/07/02 08:56:30;;;;;;;18.32;2.70;;;;;;;31.24;60.82;100110.16;1743585;81;21445;-76
2022/07/02 08:58:57;;;;;;;8.40;2.37;;;;;;;31.32;60.54;100108.05;1743116;81;20944;-75
2022/07/02 09:01:24;;;;;;;7.37;2.52;;;;;;;31.24;59.42;100108.09;1743338;81;21501;-75
2022/07/02 09:03:52;;;;;;;5.83;2.35;;;;;;;31.14;60.37;100107.77;1743495;80;21404;-76
2022/07/02 09:06:21;;;;;;;3.65;2.30;;;;;;;31.20;61.44;100113.10;1743344;81;20908;-75
2022/07/02 09:08:48;;;;;;;6.37;2.30;;;;;;;31.40;60.45;100113.58;1748654;81;20931;-76
2022/07/02 09:11:15;;;;;;;13.43;2.67;;;;;;;31.50;60.19;100106.77;1749202;82;21010;-76
2022/07/02 09:13:42;;;;;;;4.53;2.10;;;;;;;31.58;55.01;100108.15;1749773;82;21072;-74
2022/07/02 09:16:09;;;;;;;8.25;2.42;;;;;;;31.54;55.59;100103.83;1744208;80;47000;-75
2022/07/02 09:18:36;;;;;;;5.08;2.45;;;;;;;31.61;55.93;100107.08;1738453;82;20892;-76
2022/07/02 09:21:03;;;;;;;5.10;2.00;;;;;;;31.48;57.02;100105.00;1739462;82;20896;-76
2022/07/02 09:23:30;;;;;;;12.53;2.35;;;;;;;31.69;57.88;100109.88;1739050;81;20956;-76
2022/07/02 09:25:57;;;;;;;7.97;2.62;;;;;;;31.68;55.50;100109.72;1739525;82;21103;-77
2022/07/02 09:28:23;;;;;;;5.33;2.15;;;;;;;31.75;55.27;100120.08;1738691;82;21394;-76
2022/07/02 09:30:50;;;;;;;6.92;2.33;;;;;;;31.78;54.52;100117.75;1738331;82;21445;-76
2022/07/02 09:33:28;;;;;;;3.37;2.10;;;;;;;31.86;54.52;100113.42;1715260;82;20988;-76
2022/07/02 09:35:55;;;;;;;4.90;1.90;;;;;;;31.90;53.72;100111.24;1738222;82;20905;-76
2022/07/02 09:38:22;;;;;;;5.70;2.35;;;;;;;31.99;54.78;100101.28;1738192;82;21899;-76
2022/07/02 09:40:53;;;;;;;5.20;2.20;;;;;;;32.05;55.19;100107.98;1738165;82;21043;-77
2022/07/02 09:43:28;;;;;;;6.65;2.20;;;;;;;32.13;53.27;100103.64;1738548;82;21481;-76
2022/07/02 09:45:56;;;;;;;9.18;2.00;;;;;;;32.25;54.10;100110.59;1737889;82;21010;-80
2022/07/02 09:48:23;;;;;;;5.85;2.20;;;;;;;32.26;53.04;100110.75;1738175;82;20944;-76
2022/07/02 09:50:49;;;;;;;3.47;1.87;;;;;;;32.31;51.83;100105.13;1738286;82;21193;-77
2022/07/02 09:53:16;;;;;;;5.45;2.20;;;;;;;32.28;49.92;100096.84;1738102;82;20939;-77
2022/07/02 09:55:54;;;;;;;2.50;1.80;;;;;;;32.25;50.11;100104.08;1738088;82;20892;-77
2022/07/02 09:58:25;;;;;;;5.20;2.12;;;;;;;32.36;48.48;100096.61;1738228;82;20939;-76
2022/07/02 10:00:52;;;;;;;4.45;2.20;;;;;;;32.42;48.72;100105.55;1738375;82;20984;-75
2022/07/02 10:03:18;;;;;;;11.33;2.60;;;;;;;32.41;47.97;100099.66;1738122;82;21167;-75
2022/07/02 10:05:52;;;;;;;3.92;1.82;;;;;;;32.28;49.93;100108.86;1738187;82;20967;-76
2022/07/02 10:08:19;;;;;;;9.58;2.20;;;;;;;32.36;50.99;100110.86;1729772;82;24200;-75
2022/07/02 10:10:46;;;;;;;3.08;1.80;;;;;;;32.41;50.46;100107.44;1733940;82;20984;-76
2022/07/02 10:13:15;;;;;;;6.40;2.70;;;;;;;32.44;47.49;100107.94;1727705;82;21073;-75
2022/07/02 10:15:56;;;;;;;4.25;2.00;;;;;;;32.52;46.66;100105.63;1728930;82;21158;-75
2022/07/02 10:18:24;;;;;;;8.63;2.08;;;;;;;32.51;46.42;100102.00;1716331;83;21072;-75
2022/07/02 10:20:51;;;;;;;7.92;1.90;;;;;;;32.58;44.84;100107.31;1718851;83;20901;-77
2022/07/02 10:23:18;;;;;;;7.37;1.82;;;;;;;32.56;45.82;100110.63;1682812;83;21519;-76
2022/07/02 10:25:45;;;;;;;6.62;2.37;;;;;;;32.48;43.67;100111.48;1697137;83;21631;-76
2022/07/02 10:28:12;;;;;;;3.50;1.67;;;;;;;32.49;42.19;100103.08;1716659;82;20968;-76
2022/07/02 10:30:40;;;;;;;2.37;1.92;;;;;;;32.50;42.31;100101.81;1713212;82;20952;-77
2022/07/02 10:33:55;;;;;;;6.05;1.60;;;;;;;32.59;42.43;100101.77;1716545;82;21047;-78
2022/07/02 10:36:22;;;;;;;14.90;2.30;;;;;;;32.47;44.10;100104.16;1716524;83;21057;-77
2022/07/02 10:38:58;;;;;;;6.95;1.50;;;;;;;32.26;41.44;100107.12;1683882;84;21053;-76
2022/07/02 10:41:31;;;;;;;5.33;1.92;;;;;;;32.15;43.10;100105.42;1712002;83;21275;-77
2022/07/02 10:44:00;;;;;;;3.75;2.05;;;;;;;32.26;42.81;100092.23;1684302;84;21019;-76
2022/07/02 10:46:30;;;;;;;5.22;1.92;;;;;;;32.28;43.59;100093.19;1717365;82;21484;-76
2022/07/02 10:49:01;;;;;;;3.90;2.10;;;;;;;32.28;43.61;100095.42;1676221;83;21008;-76
2022/07/02 10:51:30;;;;;;;6.58;1.60;;;;;;;32.33;44.61;100094.04;1714598;83;21070;-76
2022/07/02 10:53:59;;;;;;;1.60;1.42;;;;;;;32.40;46.79;100093.80;1697833;82;21248;-76
2022/07/02 10:56:27;;;;;;;2.75;1.80;;;;;;;32.49;45.92;100089.45;1718791;83;21527;-76
2022/07/02 10:58:54;;;;;;;7.80;1.82;;;;;;;32.60;46.27;100089.13;1716226;82;21125;-77
2022/07/02 11:01:23;;;;;;;7.65;2.10;;;;;;;32.67;46.15;100078.90;1673951;83;20968;-77
2022/07/02 11:03:58;;;;;;;2.15;1.75;;;;;;;32.66;41.87;100077.29;1716637;82;21054;-78
2022/07/02 11:06:30;;;;;;;4.78;1.82;;;;;;;32.59;44.71;100076.11;1719077;83;21109;-75
2022/07/02 11:09:03;;;;;;;;;;;;;;;32.69;46.09;100070.66;1719974;83;20947;-75
2022/07/02 11:11:39;;;;;;;6.50;1.77;;;;;;;32.82;46.47;100071.25;1717635;82;20108;-77
2022/07/02 11:14:08;;;;;;;5.47;1.70;;;;;;;32.92;46.56;100064.36;1716188;82;20903;-76
2022/07/02 11:17:00;;;;;;;2.98;2.02;;;;;;;32.86;45.59;100060.52;1717741;81;21097;-78
2022/07/02 11:19:28;;;;;;;3.58;1.75;;;;;;;32.93;42.43;100060.23;1694877;84;21771;-76
2022/07/02 11:22:02;;;;;;;6.80;1.80;;;;;;;33.01;42.32;100062.98;1691911;84;21027;-76
2022/07/02 11:24:30;;;;;;;8.45;2.00;;;;;;;32.93;41.49;100055.95;1687417;83;21100;-76
2022/07/02 11:26:58;;;;;;;2.30;1.80;;;;;;;32.92;42.14;100047.25;1662622;86;21136;-76
2022/07/02 11:29:25;;;;;;;4.10;1.75;;;;;;;32.93;45.96;100053.10;1693588;83;21044;-79
2022/07/02 11:31:53;;;;;;;3.08;2.00;;;;;;;33.06;46.27;100059.38;1689533;84;21801;-76